sensor_id;sensor_type;location;lat;lon;timestamp;pressure;altitude;pressure_sealevel;temperature;humidity
46714;BME280;32445;51.376;10.874;2023-02-02T00:01:41;99268.03;;;5.32;57.55
46714;BME280;32445;51.376;10.874;2023-02-02T00:04:43;99265.44;;;5.34;57.58
46714;BME280;32445;51.376;10.874;2023-02-02T00:07:44;99264.59;;;5.32;57.59
46714;BME280;32445;51.376;10.874;2023-02-02T00:10:44;99268.88;;;5.31;57.33
46714;BME280;32445;51.376;10.874;2023-02-02T00:13:45;99274.94;;;5.29;57.11
46714;BME280;32445;51.376;10.874;2023-02-02T00:16:50;99262.91;;;5.28;57.30
46714;BME280;32445;51.376;10.874;2023-02-02T00:19:51;99266.34;;;5.27;57.29
46714;BME280;32445;51.376;10.874;2023-02-02T00:22:51;99254.34;;;5.26;57.32
46714;BME280;32445;51.376;10.874;2023-02-02T00:25:51;99273.22;;;5.26;57.37
46714;BME280;32445;51.376;10.874;2023-02-02T00:28:52;99262.09;;;5.23;56.74
46714;BME280;32445;51.376;10.874;2023-02-02T00:31:53;99269.81;;;5.21;56.97
46714;BME280;32445;51.376;10.874;2023-02-02T00:34:53;99263.84;;;5.20;56.69
46714;BME280;32445;51.376;10.874;2023-02-02T00:37:54;99272.41;;;5.19;57.06
46714;BME280;32445;51.376;10.874;2023-02-02T00:40:54;99276.72;;;5.19;57.13
46714;BME280;32445;51.376;10.874;2023-02-02T00:43:54;99275.00;;;5.18;56.36
46714;BME280;32445;51.376;10.874;2023-02-02T00:47:13;99278.44;;;5.17;56.82
46714;BME280;32445;51.376;10.874;2023-02-02T00:50:18;99280.19;;;5.15;56.50
46714;BME280;32445;51.376;10.874;2023-02-02T00:53:19;99269.03;;;5.13;56.58
46714;BME280;32445;51.376;10.874;2023-02-02T00:56:20;99269.94;;;5.10;56.45
46714;BME280;32445;51.376;10.874;2023-02-02T00:59:20;99266.50;;;5.08;56.65
46714;BME280;32445;51.376;10.874;2023-02-02T01:02:20;99274.22;;;5.08;56.51
46714;BME280;32445;51.376;10.874;2023-02-02T01:05:21;99279.38;;;5.07;56.43
46714;BME280;32445;51.376;10.874;2023-02-02T01:08:22;99277.66;;;5.06;56.66
46714;BME280;32445;51.376;10.874;2023-02-02T01:11:22;99287.94;;;5.07;56.13
46714;BME280;32445;51.376;10.874;2023-02-02T01:14:24;99287.94;;;5.07;55.97
46714;BME280;32445;51.376;10.874;2023-02-02T01:17:25;99280.25;;;5.04;55.49
46714;BME280;32445;51.376;10.874;2023-02-02T01:20:25;99279.41;;;5.03;55.83
46714;BME280;32445;51.376;10.874;2023-02-02T01:23:26;99286.28;;;5.01;55.77
46714;BME280;32445;51.376;10.874;2023-02-02T01:26:27;99282.84;;;4.99;55.64
46714;BME280;32445;51.376;10.874;2023-02-02T01:29:27;99281.13;;;5.00;55.91
46714;BME280;32445;51.376;10.874;2023-02-02T01:32:27;99279.44;;;5.00;55.79
46714;BME280;32445;51.376;10.874;2023-02-02T01:35:28;99287.16;;;5.00;56.06
46714;BME280;32445;51.376;10.874;2023-02-02T01:38:29;99283.72;;;4.98;55.96
46714;BME280;32445;51.376;10.874;2023-02-02T01:41:29;99283.72;;;4.97;55.47
46714;BME280;32445;51.376;10.874;2023-02-02T01:47:55;99292.34;;;4.96;55.49
46714;BME280;32445;51.376;10.874;2023-02-02T01:51:01;99292.34;;;4.94;55.92
46714;BME280;32445;51.376;10.874;2023-02-02T01:54:05;99300.94;;;4.92;55.66
46714;BME280;32445;51.376;10.874;2023-02-02T01:57:21;99299.22;;;4.89;55.79
46714;BME280;32445;51.376;10.874;2023-02-02T02:00:24;99306.94;;;4.89;55.57
46714;BME280;32445;51.376;10.874;2023-02-02T02:03:29;99315.50;;;4.88;56.00
46714;BME280;32445;51.376;10.874;2023-02-02T02:06:31;99318.09;;;4.88;55.79
46714;BME280;32445;51.376;10.874;2023-02-02T02:09:33;99326.66;;;4.87;56.10
46714;BME280;32445;51.376;10.874;2023-02-02T02:12:33;99330.09;;;4.88;56.29
46714;BME280;32445;51.376;10.874;2023-02-02T02:16:02;99329.22;;;4.87;56.15
46714;BME280;32445;51.376;10.874;2023-02-02T02:23:33;99327.53;;;4.86;56.29
46714;BME280;32445;51.376;10.874;2023-02-02T02:31:06;99329.28;;;4.81;56.05
46714;BME280;32445;51.376;10.874;2023-02-02T02:34:20;99333.53;;;4.85;56.07
46714;BME280;32445;51.376;10.874;2023-02-02T02:40:34;99348.97;;;4.83;56.19
46714;BME280;32445;51.376;10.874;2023-02-02T02:43:40;99333.56;;;4.82;55.95
46714;BME280;32445;51.376;10.874;2023-02-02T02:46:41;99357.53;;;4.85;55.89
46714;BME280;32445;51.376;10.874;2023-02-02T02:49:46;99345.53;;;4.86;56.12
46714;BME280;32445;51.376;10.874;2023-02-02T02:52:49;99354.94;;;4.85;56.23
46714;BME280;32445;51.376;10.874;2023-02-02T02:59:33;99345.56;;;4.83;56.19
46714;BME280;32445;51.376;10.874;2023-02-02T03:03:06;99353.28;;;4.81;56.11
46714;BME280;32445;51.376;10.874;2023-02-02T03:06:17;99348.13;;;4.83;56.55
46714;BME280;32445;51.376;10.874;2023-02-02T03:09:24;99361.00;;;4.83;56.11
46714;BME280;32445;51.376;10.874;2023-02-02T03:12:28;99356.69;;;4.82;56.21
46714;BME280;32445;51.376;10.874;2023-02-02T03:15:29;99349.81;;;4.82;56.38
46714;BME280;32445;51.376;10.874;2023-02-02T03:18:30;99355.84;;;4.83;56.24
46714;BME280;32445;51.376;10.874;2023-02-02T03:21:31;99362.66;;;4.87;56.07
46714;BME280;32445;51.376;10.874;2023-02-02T03:24:32;99359.22;;;4.88;55.73
46714;BME280;32445;51.376;10.874;2023-02-02T03:27:33;99355.81;;;4.88;56.02
46714;BME280;32445;51.376;10.874;2023-02-02T03:30:33;99361.81;;;4.87;56.07
46714;BME280;32445;51.376;10.874;2023-02-02T03:33:35;99363.56;;;4.84;55.86
46714;BME280;32445;51.376;10.874;2023-02-02T03:36:36;99362.66;;;4.85;56.31
46714;BME280;32445;51.376;10.874;2023-02-02T03:39:37;99366.97;;;4.87;55.67
46714;BME280;32445;51.376;10.874;2023-02-02T03:42:37;99361.81;;;4.85;56.08
46714;BME280;32445;51.376;10.874;2023-02-02T03:45:38;99365.25;;;4.84;56.16
46714;BME280;32445;51.376;10.874;2023-02-02T03:48:39;99378.09;;;4.85;56.22
46714;BME280;32445;51.376;10.874;2023-02-02T03:51:40;99380.66;;;4.87;55.98
46714;BME280;32445;51.376;10.874;2023-02-02T03:54:42;99382.41;;;4.85;55.52
46714;BME280;32445;51.376;10.874;2023-02-02T03:57:42;99383.25;;;4.82;56.04
46714;BME280;32445;51.376;10.874;2023-02-02T04:00:42;99383.25;;;4.82;56.03
46714;BME280;32445;51.376;10.874;2023-02-02T04:03:43;99395.28;;;4.83;56.17
46714;BME280;32445;51.376;10.874;2023-02-02T04:06:45;99392.69;;;4.85;56.01
46714;BME280;32445;51.376;10.874;2023-02-02T04:09:45;99396.13;;;4.84;56.29
46714;BME280;32445;51.376;10.874;2023-02-02T04:12:46;99397.00;;;4.84;56.00
46714;BME280;32445;51.376;10.874;2023-02-02T04:15:46;99401.25;;;4.84;55.91
46714;BME280;32445;51.376;10.874;2023-02-02T04:18:46;99413.25;;;4.85;55.82
46714;BME280;32445;51.376;10.874;2023-02-02T04:21:47;99412.41;;;4.86;56.30
46714;BME280;32445;51.376;10.874;2023-02-02T04:24:47;99415.84;;;4.85;56.24
46714;BME280;32445;51.376;10.874;2023-02-02T04:27:47;99411.53;;;4.85;56.14
46714;BME280;32445;51.376;10.874;2023-02-02T04:30:49;99413.25;;;4.85;56.44
46714;BME280;32445;51.376;10.874;2023-02-02T04:33:49;99414.09;;;4.85;56.23
46714;BME280;32445;51.376;10.874;2023-02-02T04:36:49;99421.81;;;4.87;56.30
46714;BME280;32445;51.376;10.874;2023-02-02T04:39:50;99429.53;;;4.85;56.63
46714;BME280;32445;51.376;10.874;2023-02-02T04:42:50;99432.97;;;4.86;56.41
46714;BME280;32445;51.376;10.874;2023-02-02T04:45:54;99432.09;;;4.85;56.47
46714;BME280;32445;51.376;10.874;2023-02-02T04:48:55;99434.66;;;4.87;56.53
46714;BME280;32445;51.376;10.874;2023-02-02T04:51:55;99433.81;;;4.90;56.85
46714;BME280;32445;51.376;10.874;2023-02-02T04:54:56;99439.84;;;4.90;56.67
46714;BME280;32445;51.376;10.874;2023-02-02T04:57:57;99435.53;;;4.89;57.02
46714;BME280;32445;51.376;10.874;2023-02-02T05:00:57;99436.38;;;4.91;56.81
46714;BME280;32445;51.376;10.874;2023-02-02T05:03:57;99435.53;;;4.92;56.57
46714;BME280;32445;51.376;10.874;2023-02-02T05:06:58;99436.38;;;4.93;56.64
46714;BME280;32445;51.376;10.874;2023-02-02T05:09:58;99438.09;;;4.92;57.08
46714;BME280;32445;51.376;10.874;2023-02-02T05:12:58;99444.97;;;4.92;56.64
46714;BME280;32445;51.376;10.874;2023-02-02T05:15:59;99444.09;;;4.91;57.03
46714;BME280;32445;51.376;10.874;2023-02-02T05:18:59;99447.53;;;4.90;56.74
46714;BME280;32445;51.376;10.874;2023-02-02T05:21:59;99454.38;;;4.91;56.89
46714;BME280;32445;51.376;10.874;2023-02-02T05:25:00;99455.25;;;4.90;56.81
46714;BME280;32445;51.376;10.874;2023-02-02T05:28:00;99458.69;;;4.88;57.25
46714;BME280;32445;51.376;10.874;2023-02-02T05:31:04;99465.53;;;4.87;57.10
46714;BME280;32445;51.376;10.874;2023-02-02T05:34:05;99465.56;;;4.89;57.44
46714;BME280;32445;51.376;10.874;2023-02-02T05:37:06;99463.84;;;4.88;57.40
46714;BME280;32445;51.376;10.874;2023-02-02T05:40:06;99461.28;;;4.88;57.57
46714;BME280;32445;51.376;10.874;2023-02-02T05:43:07;99472.41;;;4.87;57.96
46714;BME280;32445;51.376;10.874;2023-02-02T05:46:07;99465.53;;;4.87;58.26
46714;BME280;32445;51.376;10.874;2023-02-02T05:49:12;99468.09;;;4.87;57.64
46714;BME280;32445;51.376;10.874;2023-02-02T05:52:15;99471.56;;;4.86;57.70
46714;BME280;32445;51.376;10.874;2023-02-02T05:55:17;99470.69;;;4.87;58.07
46714;BME280;32445;51.376;10.874;2023-02-02T05:58:19;99487.00;;;4.88;58.02
46714;BME280;32445;51.376;10.874;2023-02-02T06:01:19;99489.56;;;4.88;58.56
46714;BME280;32445;51.376;10.874;2023-02-02T06:04:20;99480.13;;;4.88;58.40
46714;BME280;32445;51.376;10.874;2023-02-02T06:07:21;99484.41;;;4.88;57.99
46714;BME280;32445;51.376;10.874;2023-02-02T06:10:21;99486.13;;;4.89;58.21
46714;BME280;32445;51.376;10.874;2023-02-02T06:13:22;99496.41;;;4.90;58.52
46714;BME280;32445;51.376;10.874;2023-02-02T06:16:23;99488.69;;;4.90;58.35
46714;BME280;32445;51.376;10.874;2023-02-02T06:19:23;99480.97;;;4.90;58.47
46714;BME280;32445;51.376;10.874;2023-02-02T06:22:23;99488.69;;;4.92;58.50
46714;BME280;32445;51.376;10.874;2023-02-02T06:25:24;99490.38;;;4.93;58.97
46714;BME280;32445;51.376;10.874;2023-02-02T06:28:24;99499.81;;;4.95;58.59
46714;BME280;32445;51.376;10.874;2023-02-02T06:31:25;99499.81;;;4.95;58.50
46714;BME280;32445;51.376;10.874;2023-02-02T06:34:25;99502.38;;;4.97;58.85
46714;BME280;32445;51.376;10.874;2023-02-02T06:37:25;99505.81;;;4.97;58.94
46714;BME280;32445;51.376;10.874;2023-02-02T06:40:27;99517.81;;;4.98;58.95
46714;BME280;32445;51.376;10.874;2023-02-02T06:43:28;99514.38;;;4.98;58.69
46714;BME280;32445;51.376;10.874;2023-02-02T06:46:29;99519.53;;;4.98;58.93
46714;BME280;32445;51.376;10.874;2023-02-02T06:49:29;99531.53;;;4.99;58.79
46714;BME280;32445;51.376;10.874;2023-02-02T06:52:29;99532.38;;;4.99;59.28
46714;BME280;32445;51.376;10.874;2023-02-02T06:55:30;99531.53;;;5.00;59.15
46714;BME280;32445;51.376;10.874;2023-02-02T06:58:31;99535.81;;;5.00;58.85
46714;BME280;32445;51.376;10.874;2023-02-02T07:01:32;99540.97;;;5.03;58.95
46714;BME280;32445;51.376;10.874;2023-02-02T07:04:32;99543.53;;;5.03;58.83
46714;BME280;32445;51.376;10.874;2023-02-02T07:07:33;99542.66;;;5.04;58.77
46714;BME280;32445;51.376;10.874;2023-02-02T07:10:36;99546.94;;;5.05;58.92
46714;BME280;32445;51.376;10.874;2023-02-02T07:13:37;99544.38;;;5.08;58.86
46714;BME280;32445;51.376;10.874;2023-02-02T07:16:38;99557.22;;;5.11;59.14
46714;BME280;32445;51.376;10.874;2023-02-02T07:19:38;99557.22;;;5.10;58.92
46714;BME280;32445;51.376;10.874;2023-02-02T07:22:39;99560.66;;;5.12;58.84
46714;BME280;32445;51.376;10.874;2023-02-02T07:25:40;99552.94;;;5.13;58.86
46714;BME280;32445;51.376;10.874;2023-02-02T07:28:41;99554.66;;;5.14;58.87
46714;BME280;32445;51.376;10.874;2023-02-02T07:31:41;99553.78;;;5.14;59.06
46714;BME280;32445;51.376;10.874;2023-02-02T07:34:41;99564.94;;;5.16;58.78
46714;BME280;32445;51.376;10.874;2023-02-02T07:37:43;99567.53;;;5.16;59.02
46714;BME280;32445;51.376;10.874;2023-02-02T07:40:44;99570.06;;;5.19;59.06
46714;BME280;32445;51.376;10.874;2023-02-02T07:43:46;99572.63;;;5.22;59.51
46714;BME280;32445;51.376;10.874;2023-02-02T07:46:47;99589.78;;;5.26;59.00
46714;BME280;32445;51.376;10.874;2023-02-02T07:49:47;99576.91;;;5.28;59.09
46714;BME280;32445;51.376;10.874;2023-02-02T07:52:47;99576.03;;;5.30;59.00
46714;BME280;32445;51.376;10.874;2023-02-02T07:55:48;99580.31;;;5.31;59.51
46714;BME280;32445;51.376;10.874;2023-02-02T07:58:51;99582.03;;;5.34;59.12
46714;BME280;32445;51.376;10.874;2023-02-02T08:01:51;99582.00;;;5.38;59.38
46714;BME280;32445;51.376;10.874;2023-02-02T08:04:51;99581.13;;;5.41;59.40
46714;BME280;32445;51.376;10.874;2023-02-02T08:07:52;99581.13;;;5.43;59.49
46714;BME280;32445;51.376;10.874;2023-02-02T08:10:53;99587.16;;;5.45;59.07
46714;BME280;32445;51.376;10.874;2023-02-02T08:13:57;99582.00;;;5.45;59.44
46714;BME280;32445;51.376;10.874;2023-02-02T08:16:58;99585.41;;;5.47;59.29
46714;BME280;32445;51.376;10.874;2023-02-02T08:19:58;99593.13;;;5.50;59.35
46714;BME280;32445;51.376;10.874;2023-02-02T08:22:58;99595.69;;;5.51;59.49
46714;BME280;32445;51.376;10.874;2023-02-02T08:26:11;99599.13;;;5.53;59.55
46714;BME280;32445;51.376;10.874;2023-02-02T08:29:11;99611.13;;;5.58;59.16
46714;BME280;32445;51.376;10.874;2023-02-02T08:32:16;99624.00;;;5.59;59.01
46714;BME280;32445;51.376;10.874;2023-02-02T08:35:16;99623.13;;;5.60;59.46
46714;BME280;32445;51.376;10.874;2023-02-02T08:38:18;99619.66;;;5.64;58.64
46714;BME280;32445;51.376;10.874;2023-02-02T08:41:20;99624.81;;;5.67;58.34
46714;BME280;32445;51.376;10.874;2023-02-02T08:44:21;99627.41;;;5.67;58.21
46714;BME280;32445;51.376;10.874;2023-02-02T08:47:22;99641.13;;;5.69;58.39
46714;BME280;32445;51.376;10.874;2023-02-02T08:50:22;99637.69;;;5.70;57.87
46714;BME280;32445;51.376;10.874;2023-02-02T08:53:24;99651.41;;;5.69;57.57
46714;BME280;32445;51.376;10.874;2023-02-02T08:56:24;99654.03;;;5.65;57.69
46714;BME280;32445;51.376;10.874;2023-02-02T08:59:25;99660.03;;;5.59;57.67
46714;BME280;32445;51.376;10.874;2023-02-02T09:02:25;99654.91;;;5.53;58.02
46714;BME280;32445;51.376;10.874;2023-02-02T09:05:25;99674.66;;;5.51;58.47
46714;BME280;32445;51.376;10.874;2023-02-02T09:08:26;99669.50;;;5.48;58.40
46714;BME280;32445;51.376;10.874;2023-02-02T09:11:26;99672.94;;;5.50;58.50
46714;BME280;32445;51.376;10.874;2023-02-02T09:14:27;99676.38;;;5.46;58.59
46714;BME280;32445;51.376;10.874;2023-02-02T09:17:27;99679.81;;;5.40;58.68
46714;BME280;32445;51.376;10.874;2023-02-02T09:20:28;99680.72;;;5.36;58.48
46714;BME280;32445;51.376;10.874;2023-02-02T09:23:30;99683.28;;;5.31;58.63
46714;BME280;32445;51.376;10.874;2023-02-02T09:26:30;99686.72;;;5.30;58.74
46714;BME280;32445;51.376;10.874;2023-02-02T09:29:31;99691.00;;;5.31;59.09
46714;BME280;32445;51.376;10.874;2023-02-02T09:32:31;99697.03;;;5.27;59.02
46714;BME280;32445;51.376;10.874;2023-02-02T09:35:32;99703.88;;;5.27;59.47
46714;BME280;32445;51.376;10.874;2023-02-02T09:38:32;99704.72;;;5.26;59.26
46714;BME280;32445;51.376;10.874;2023-02-02T09:44:54;99718.47;;;5.25;59.23
46714;BME280;32445;51.376;10.874;2023-02-02T09:48:01;99730.47;;;5.32;59.25
46714;BME280;32445;51.376;10.874;2023-02-02T09:51:12;99728.75;;;5.35;59.45
46714;BME280;32445;51.376;10.874;2023-02-02T09:54:20;99740.75;;;5.40;59.21
46714;BME280;32445;51.376;10.874;2023-02-02T09:57:26;99726.16;;;5.38;59.82
46714;BME280;32445;51.376;10.874;2023-02-02T10:00:36;99733.91;;;5.42;59.85
46714;BME280;32445;51.376;10.874;2023-02-02T10:04:17;99743.31;;;5.43;59.57
46714;BME280;32445;51.376;10.874;2023-02-02T10:07:26;99734.72;;;5.53;59.77
46714;BME280;32445;51.376;10.874;2023-02-02T10:10:34;99734.72;;;5.59;59.58
46714;BME280;32445;51.376;10.874;2023-02-02T10:13:40;99734.72;;;5.61;59.62
46714;BME280;32445;51.376;10.874;2023-02-02T10:16:43;99741.59;;;5.65;59.30
46714;BME280;32445;51.376;10.874;2023-02-02T10:19:47;99748.44;;;5.70;59.08
46714;BME280;32445;51.376;10.874;2023-02-02T10:22:49;99751.84;;;5.76;59.25
46714;BME280;32445;51.376;10.874;2023-02-02T10:26:03;99756.16;;;5.75;59.26
46714;BME280;32445;51.376;10.874;2023-02-02T10:32:26;99757.00;;;5.80;59.17
46714;BME280;32445;51.376;10.874;2023-02-02T10:36:09;99756.97;;;5.79;59.14
46714;BME280;32445;51.376;10.874;2023-02-02T10:49:41;99766.41;;;5.94;58.94
46714;BME280;32445;51.376;10.874;2023-02-02T10:52:52;99775.84;;;5.87;59.13
46714;BME280;32445;51.376;10.874;2023-02-02T10:56:06;99773.28;;;5.87;59.00
46714;BME280;32445;51.376;10.874;2023-02-02T10:59:17;99769.88;;;5.85;59.10
46714;BME280;32445;51.376;10.874;2023-02-02T11:02:20;99764.69;;;5.89;59.40
46714;BME280;32445;51.376;10.874;2023-02-02T11:05:27;99775.84;;;5.92;59.33
46714;BME280;32445;51.376;10.874;2023-02-02T11:08:53;99783.59;;;5.93;59.23
46714;BME280;32445;51.376;10.874;2023-02-02T11:12:03;99782.69;;;5.96;59.51
46714;BME280;32445;51.376;10.874;2023-02-02T11:15:21;99784.44;;;5.98;59.06
46714;BME280;32445;51.376;10.874;2023-02-02T11:18:28;99788.75;;;5.95;59.30
46714;BME280;32445;51.376;10.874;2023-02-02T11:21:31;99787.84;;;5.96;59.51
46714;BME280;32445;51.376;10.874;2023-02-02T11:24:47;99790.44;;;5.96;59.60
46714;BME280;32445;51.376;10.874;2023-02-02T11:27:48;99793.00;;;5.96;59.43
46714;BME280;32445;51.376;10.874;2023-02-02T11:30:50;99788.75;;;5.98;59.79
46714;BME280;32445;51.376;10.874;2023-02-02T11:33:52;99798.19;;;5.99;59.67
46714;BME280;32445;51.376;10.874;2023-02-02T11:37:12;99805.06;;;6.00;60.20
46714;BME280;32445;51.376;10.874;2023-02-02T11:43:49;99793.91;;;6.01;59.64
46714;BME280;32445;51.376;10.874;2023-02-02T11:46:51;99806.75;;;6.05;59.90
46714;BME280;32445;51.376;10.874;2023-02-02T11:49:54;99811.91;;;6.10;59.73
46714;BME280;32445;51.376;10.874;2023-02-02T11:52:56;99813.63;;;6.13;59.83
46714;BME280;32445;51.376;10.874;2023-02-02T11:56:09;99811.91;;;6.09;59.76
46714;BME280;32445;51.376;10.874;2023-02-02T11:59:32;99805.03;;;6.04;59.72
46714;BME280;32445;51.376;10.874;2023-02-02T12:02:33;99805.91;;;6.08;59.76
46714;BME280;32445;51.376;10.874;2023-02-02T12:05:37;99808.50;;;6.05;60.10
46714;BME280;32445;51.376;10.874;2023-02-02T12:08:37;99803.34;;;6.05;60.19
46714;BME280;32445;51.376;10.874;2023-02-02T12:12:01;99802.47;;;6.03;60.29
46714;BME280;32445;51.376;10.874;2023-02-02T12:22:15;99810.19;;;6.11;59.85
46714;BME280;32445;51.376;10.874;2023-02-02T12:35:20;99805.88;;;6.16;59.87
46714;BME280;32445;51.376;10.874;2023-02-02T12:51:44;99811.00;;;6.19;59.71
46714;BME280;32445;51.376;10.874;2023-02-02T12:55:14;99812.75;;;6.18;59.68
46714;BME280;32445;51.376;10.874;2023-02-02T13:02:04;99819.59;;;6.24;59.80
46714;BME280;32445;51.376;10.874;2023-02-02T13:08:48;99816.13;;;6.33;59.63
46714;BME280;32445;51.376;10.874;2023-02-02T13:12:01;99825.56;;;6.35;59.66
46714;BME280;32445;51.376;10.874;2023-02-02T13:15:16;99824.72;;;6.35;59.55
46714;BME280;32445;51.376;10.874;2023-02-02T13:18:38;99830.75;;;6.34;59.47
46714;BME280;32445;51.376;10.874;2023-02-02T13:21:40;99837.63;;;6.33;59.51
46714;BME280;32445;51.376;10.874;2023-02-02T13:24:44;99836.72;;;6.36;59.49
46714;BME280;32445;51.376;10.874;2023-02-02T13:27:46;99833.28;;;6.38;59.61
46714;BME280;32445;51.376;10.874;2023-02-02T13:30:49;99842.75;;;6.38;59.35
46714;BME280;32445;51.376;10.874;2023-02-02T13:34:19;99844.47;;;6.37;59.31
46714;BME280;32445;51.376;10.874;2023-02-02T13:37:43;99841.91;;;6.33;59.63
46714;BME280;32445;51.376;10.874;2023-02-02T13:40:45;99846.19;;;6.38;59.49
46714;BME280;32445;51.376;10.874;2023-02-02T13:44:00;99848.75;;;6.41;59.62
46714;BME280;32445;51.376;10.874;2023-02-02T13:47:15;99854.78;;;6.40;59.45
46714;BME280;32445;51.376;10.874;2023-02-02T13:50:20;99856.47;;;6.45;59.37
46714;BME280;32445;51.376;10.874;2023-02-02T13:59:56;99863.34;;;6.55;59.19
46714;BME280;32445;51.376;10.874;2023-02-02T14:03:02;99866.78;;;6.52;59.06
46714;BME280;32445;51.376;10.874;2023-02-02T14:06:13;99876.25;;;6.46;59.30
46714;BME280;32445;51.376;10.874;2023-02-02T14:09:17;99879.69;;;6.48;59.26
46714;BME280;32445;51.376;10.874;2023-02-02T14:12:27;99890.84;;;6.48;59.03
46714;BME280;32445;51.376;10.874;2023-02-02T14:15:40;99890.84;;;6.47;58.94
46714;BME280;32445;51.376;10.874;2023-02-02T14:28:41;99903.72;;;6.53;58.84
46714;BME280;32445;51.376;10.874;2023-02-02T14:31:53;99900.31;;;6.51;59.14
46714;BME280;32445;51.376;10.874;2023-02-02T14:46:15;99920.03;;;6.61;59.25
46714;BME280;32445;51.376;10.874;2023-02-02T14:49:10;99927.81;;;6.56;59.33
46714;BME280;32445;51.376;10.874;2023-02-02T14:52:20;99932.97;;;6.53;59.15
46714;BME280;32445;51.376;10.874;2023-02-02T14:55:21;99936.41;;;6.55;59.29
46714;BME280;32445;51.376;10.874;2023-02-02T15:01:30;99955.31;;;6.61;59.31
46714;BME280;32445;51.376;10.874;2023-02-02T15:04:32;99973.34;;;6.64;59.57
46714;BME280;32445;51.376;10.874;2023-02-02T15:13:58;99987.09;;;6.66;58.97
46714;BME280;32445;51.376;10.874;2023-02-02T15:20:49;99984.53;;;6.61;59.14
46714;BME280;32445;51.376;10.874;2023-02-02T15:23:53;99984.50;;;6.67;59.31
46714;BME280;32445;51.376;10.874;2023-02-02T15:26:54;99988.84;;;6.62;59.05
46714;BME280;32445;51.376;10.874;2023-02-02T15:30:02;99989.69;;;6.58;59.33
46714;BME280;32445;51.376;10.874;2023-02-02T15:33:11;100000.00;;;6.61;59.21
46714;BME280;32445;51.376;10.874;2023-02-02T15:36:30;99997.44;;;6.58;58.93
46714;BME280;32445;51.376;10.874;2023-02-02T15:39:35;100005.16;;;6.61;58.92
46714;BME280;32445;51.376;10.874;2023-02-02T15:42:43;100018.91;;;6.60;58.84
46714;BME280;32445;51.376;10.874;2023-02-02T15:46:01;100018.91;;;6.58;58.80
46714;BME280;32445;51.376;10.874;2023-02-02T15:52:23;100030.09;;;6.53;59.04
46714;BME280;32445;51.376;10.874;2023-02-02T15:55:33;100044.75;;;6.51;59.48
46714;BME280;32445;51.376;10.874;2023-02-02T15:58:37;100046.44;;;6.50;58.69
46714;BME280;32445;51.376;10.874;2023-02-02T16:01:47;100054.19;;;6.47;59.32
46714;BME280;32445;51.376;10.874;2023-02-02T16:04:59;100059.34;;;6.46;59.31
46714;BME280;32445;51.376;10.874;2023-02-02T16:08:01;100067.94;;;6.43;59.16
46714;BME280;32445;51.376;10.874;2023-02-02T16:11:13;100081.72;;;6.42;59.38
46714;BME280;32445;51.376;10.874;2023-02-02T16:14:15;100084.28;;;6.44;59.33
46714;BME280;32445;51.376;10.874;2023-02-02T16:17:26;100098.88;;;6.43;59.25
46714;BME280;32445;51.376;10.874;2023-02-02T16:20:32;100108.34;;;6.43;59.02
46714;BME280;32445;51.376;10.874;2023-02-02T16:23:34;100104.91;;;6.44;59.21
46714;BME280;32445;51.376;10.874;2023-02-02T16:26:36;100113.50;;;6.39;59.10
46714;BME280;32445;51.376;10.874;2023-02-02T16:29:38;100108.34;;;6.39;59.29
46714;BME280;32445;51.376;10.874;2023-02-02T16:32:39;100115.22;;;6.36;59.16
46714;BME280;32445;51.376;10.874;2023-02-02T16:35:40;100112.63;;;6.31;59.16
46714;BME280;32445;51.376;10.874;2023-02-02T16:38:41;100122.09;;;6.31;59.37
46714;BME280;32445;51.376;10.874;2023-02-02T16:41:42;100121.22;;;6.29;59.38
46714;BME280;32445;51.376;10.874;2023-02-02T16:44:44;100124.69;;;6.28;59.24
46714;BME280;32445;51.376;10.874;2023-02-02T16:47:44;100122.94;;;6.27;59.05
46714;BME280;32445;51.376;10.874;2023-02-02T16:50:46;100124.66;;;6.24;59.35
46714;BME280;32445;51.376;10.874;2023-02-02T16:57:05;100142.72;;;6.28;58.99
46714;BME280;32445;51.376;10.874;2023-02-02T17:00:06;100144.41;;;6.30;59.12
46714;BME280;32445;51.376;10.874;2023-02-02T17:03:09;100141.84;;;6.30;59.13
46714;BME280;32445;51.376;10.874;2023-02-02T17:06:12;100141.84;;;6.29;59.45
46714;BME280;32445;51.376;10.874;2023-02-02T17:09:29;100141.84;;;6.30;59.20
46714;BME280;32445;51.376;10.874;2023-02-02T17:12:30;100145.31;;;6.37;58.80
46714;BME280;32445;51.376;10.874;2023-02-02T17:15:35;100149.59;;;6.39;58.72
46714;BME280;32445;51.376;10.874;2023-02-02T17:18:35;100159.06;;;6.40;58.41
46714;BME280;32445;51.376;10.874;2023-02-02T17:21:36;100156.47;;;6.39;58.81
46714;BME280;32445;51.376;10.874;2023-02-02T17:24:36;100164.19;;;6.37;58.83
46714;BME280;32445;51.376;10.874;2023-02-02T17:27:37;100161.66;;;6.40;58.40
46714;BME280;32445;51.376;10.874;2023-02-02T17:30:45;100160.78;;;6.41;58.12
46714;BME280;32445;51.376;10.874;2023-02-02T17:33:46;100154.75;;;6.46;58.64
46714;BME280;32445;51.376;10.874;2023-02-02T17:36:46;100163.38;;;6.46;58.19
46714;BME280;32445;51.376;10.874;2023-02-02T17:39:47;100170.25;;;6.44;58.37
46714;BME280;32445;51.376;10.874;2023-02-02T17:42:51;100168.50;;;6.45;58.14
46714;BME280;32445;51.376;10.874;2023-02-02T17:45:52;100163.34;;;6.45;57.94
46714;BME280;32445;51.376;10.874;2023-02-02T17:48:52;100171.09;;;6.38;58.29
46714;BME280;32445;51.376;10.874;2023-02-02T17:51:53;100165.94;;;6.37;58.28
46714;BME280;32445;51.376;10.874;2023-02-02T17:54:53;100172.81;;;6.33;58.53
46714;BME280;32445;51.376;10.874;2023-02-02T17:57:53;100175.38;;;6.32;58.44
46714;BME280;32445;51.376;10.874;2023-02-02T18:00:54;100180.53;;;6.27;58.37
46714;BME280;32445;51.376;10.874;2023-02-02T18:03:58;100181.38;;;6.24;58.22
46714;BME280;32445;51.376;10.874;2023-02-02T18:06:58;100192.56;;;6.20;58.50
46714;BME280;32445;51.376;10.874;2023-02-02T18:09:58;100195.97;;;6.15;58.80
46714;BME280;32445;51.376;10.874;2023-02-02T18:12:59;100195.09;;;6.08;58.44
46714;BME280;32445;51.376;10.874;2023-02-02T18:15:59;100202.81;;;6.06;59.17